Time;durP1;ratioP1;P1;durP2;ratioP2;P2;SDS_P1;SDS_P2;PMS_P1;PMS_P2;Temp;Humidity;BMP_temperature;BMP_pressure;BME280_temperature;BME280_humidity;BME280_pressure;Samples;Min_cycle;Max_cycle;Signal;HPM_P1;HPM_P2
2023/12/28 00:00:16;;;;;;;;;;;;;;;1.47;87.34;100372.04;110544;1273;22487;-72
2023/12/28 00:03:43;;;;;;;85.90;31.10;;;;;;;1.45;87.48;100360.20;110575;1273;22575;-71
2023/12/28 00:06:34;;;;;;;79.60;26.70;;;;;;;1.43;87.50;100354.49;110549;1276;22577;-70
2023/12/28 00:09:25;;;;;;;69.00;28.00;;;;;;;1.39;87.69;100346.85;110575;1260;22222;-72
2023/12/28 00:12:15;;;;;;;69.50;26.60;;;;;;;1.38;87.87;100346.48;110536;1276;22520;-71
2023/12/28 00:15:08;;;;;;;61.90;25.50;;;;;;;1.38;87.87;100346.16;110526;1261;22171;-74
2023/12/28 00:17:58;;;;;;;66.10;24.00;;;;;;;1.39;87.94;100342.85;110524;1276;22208;-71
2023/12/28 00:20:50;;;;;;;64.10;24.30;;;;;;;1.39;88.02;100339.14;110512;1276;22191;-71
2023/12/28 00:23:41;;;;;;;76.40;25.80;;;;;;;1.39;88.00;100331.37;110500;1276;22248;-71
2023/12/28 00:26:31;;;;;;;65.60;23.40;;;;;;;1.35;87.99;100321.91;110432;1275;112558;-71
2023/12/28 00:29:29;;;;;;;61.40;23.00;;;;;;;1.31;88.07;100315.70;110555;1268;22374;-72
2023/12/28 00:32:19;;;;;;;55.20;22.00;;;;;;;1.29;88.27;100316.42;110562;1273;22221;-71
2023/12/28 00:35:09;;;;;;;;;;;;;;;1.28;88.37;100319.42;110557;1268;23045;-70
2023/12/28 00:37:59;;;;;;;49.50;19.60;;;;;;;1.25;88.51;100320.31;110518;1270;22925;-71
2023/12/28 00:40:50;;;;;;;56.10;22.10;;;;;;;1.24;88.66;100321.67;110538;1273;23017;-71
2023/12/28 00:43:39;;;;;;;;;;;;;;;1.25;88.77;100316.25;110530;1270;22408;-72
2023/12/28 00:46:29;;;;;;;53.70;19.30;;;;;;;1.25;88.83;100315.30;110572;1260;23271;-71
2023/12/28 00:49:18;;;;;;;;;;;;;;;1.28;88.88;100309.84;110560;1273;22411;-71
2023/12/28 00:52:09;;;;;;;53.90;19.60;;;;;;;1.29;88.94;100306.60;110566;1268;22209;-71
2023/12/28 00:55:00;;;;;;;50.00;18.70;;;;;;;1.30;88.92;100303.27;110554;1273;22171;-72
2023/12/28 00:57:51;;;;;;;59.60;20.40;;;;;;;1.31;88.98;100300.69;110554;1276;22269;-72
2023/12/28 01:00:40;;;;;;;;;;;;;;;1.31;88.91;100301.15;110566;1270;22399;-71
2023/12/28 01:03:31;;;;;;;55.90;19.40;;;;;;;1.30;89.07;100301.02;110567;1268;22907;-71
2023/12/28 01:06:22;;;;;;;57.10;18.80;;;;;;;1.28;89.04;100298.90;110538;1268;22146;-71
2023/12/28 01:09:11;;;;;;;;;;;;;;;1.29;89.09;100303.69;110613;1268;22399;-73
2023/12/28 01:12:02;;;;;;;53.10;20.20;;;;;;;1.27;89.17;100304.82;110551;1276;22890;-71
2023/12/28 01:14:53;;;;;;;52.10;20.30;;;;;;;1.28;89.28;100301.02;110566;1276;23000;-71
2023/12/28 01:17:44;;;;;;;57.30;21.50;;;;;;;1.27;89.32;100294.77;110566;1276;22228;-71
2023/12/28 01:20:35;;;;;;;53.90;20.10;;;;;;;1.27;89.32;100296.48;110558;1268;22296;-71
2023/12/28 01:23:26;;;;;;;54.20;20.40;;;;;;;1.28;89.36;100293.98;110539;1269;22171;-70
2023/12/28 01:26:17;;;;;;;50.90;18.70;;;;;;;1.29;89.45;100292.21;110539;1268;22301;-72
2023/12/28 01:29:08;;;;;;;52.20;20.30;;;;;;;1.31;89.49;100295.18;110566;1276;22246;-69
2023/12/28 01:31:59;;;;;;;53.50;20.60;;;;;;;1.32;89.43;100290.08;110570;1276;22244;-72
2023/12/28 01:34:50;;;;;;;59.90;21.80;;;;;;;1.33;89.44;100287.52;110610;1276;22196;-71
2023/12/28 01:37:42;;;;;;;54.90;21.40;;;;;;;1.34;89.25;100283.20;110478;1276;22206;-70
2023/12/28 01:40:31;;;;;;;;;;;;;;;1.36;89.38;100281.13;110530;1263;22412;-72
2023/12/28 01:43:22;;;;;;;55.60;20.30;;;;;;;1.35;89.38;100283.65;110581;1273;22158;-72
2023/12/28 01:46:17;;;;;;;49.30;20.30;;;;;;;1.35;89.36;100279.64;110595;1271;22209;-71
2023/12/28 01:49:08;;;;;;;52.70;21.00;;;;;;;1.34;89.40;100273.36;110566;1273;22281;-71
2023/12/28 01:52:00;;;;;;;51.90;21.10;;;;;;;1.36;89.50;100263.13;110556;1276;22933;-72
2023/12/28 01:54:51;;;;;;;45.10;18.50;;;;;;;1.36;89.40;100259.73;110556;1270;22442;-71
2023/12/28 01:57:42;;;;;;;55.60;21.50;;;;;;;1.36;89.47;100258.02;110538;1276;22225;-70
2023/12/28 02:00:36;;;;;;;46.70;18.20;;;;;;;1.37;89.53;100250.44;110555;1269;22202;-72
2023/12/28 02:03:27;;;;;;;47.20;19.00;;;;;;;1.38;89.54;100250.66;110574;1274;22170;-71
2023/12/28 02:06:19;;;;;;;43.70;16.80;;;;;;;1.40;89.65;100242.55;110565;1268;22221;-71
2023/12/28 02:09:09;;;;;;;46.40;18.40;;;;;;;1.41;89.74;100238.29;110548;1268;22894;-71
2023/12/28 02:12:00;;;;;;;43.00;18.60;;;;;;;1.40;89.65;100236.34;110487;1273;22160;-72
2023/12/28 02:14:51;;;;;;;51.20;18.40;;;;;;;1.40;89.52;100236.89;110544;1273;22980;-71
2023/12/28 02:17:49;;;;;;;53.00;19.40;;;;;;;1.38;89.49;100231.66;110502;1271;22172;-72
2023/12/28 02:20:42;;;;;;;46.30;17.50;;;;;;;1.38;89.55;100225.52;110569;1270;22637;-72
2023/12/28 02:23:34;;;;;;;47.40;18.20;;;;;;;1.38;89.56;100223.48;110524;1268;22234;-71
2023/12/28 02:26:25;;;;;;;46.30;18.50;;;;;;;1.35;89.49;100217.86;110533;1268;22101;-70
2023/12/28 02:29:18;;;;;;;48.50;19.60;;;;;;;1.35;89.45;100214.96;110536;1268;22916;-71
2023/12/28 02:32:12;;;;;;;47.50;18.40;;;;;;;1.34;89.53;100209.34;110570;1272;23277;-72
2023/12/28 02:35:10;;;;;;;44.80;18.40;;;;;;;1.34;89.55;100209.23;110478;1276;22381;-72
2023/12/28 02:38:06;;;;;;;41.20;16.00;;;;;;;1.35;89.60;100206.23;110467;1276;22188;-71
2023/12/28 02:40:58;;;;;;;49.60;17.40;;;;;;;1.35;89.77;100208.59;110491;1276;22996;-71
2023/12/28 02:43:51;;;;;;;36.30;16.30;;;;;;;1.35;89.83;100201.69;110476;1276;22330;-71
2023/12/28 02:46:43;;;;;;;43.90;16.20;;;;;;;1.35;89.83;100193.60;110453;1276;22130;-72
2023/12/28 02:49:34;;;;;;;44.80;15.80;;;;;;;1.35;89.80;100194.00;110479;1275;22332;-72
2023/12/28 02:52:24;;;;;;;37.50;14.00;;;;;;;1.33;89.89;100186.00;110542;1271;22103;-71
2023/12/28 02:55:15;;;;;;;37.50;14.10;;;;;;;1.32;89.94;100185.79;110548;1276;22161;-71
2023/12/28 02:58:05;;;;;;;;;;;;;;;1.31;89.93;100183.98;110575;1268;22449;-71
2023/12/28 03:00:55;;;;;;;41.10;13.90;;;;;;;1.30;89.99;100180.63;110554;1273;22189;-71
2023/12/28 03:03:46;;;;;;;39.90;14.60;;;;;;;1.31;89.88;100182.73;110557;1268;22247;-71
2023/12/28 03:06:38;;;;;;;;;;;;;;;1.31;89.89;100174.32;110544;1268;22325;-71
2023/12/28 03:09:28;;;;;;;42.20;14.80;;;;;;;1.31;89.93;100160.96;110530;1268;22479;-71
2023/12/28 03:12:19;;;;;;;42.00;16.50;;;;;;;1.31;89.79;100152.25;110548;1268;22424;-71
2023/12/28 03:15:10;;;;;;;45.00;16.00;;;;;;;1.29;89.70;100151.73;110554;1268;22077;-72
2023/12/28 03:18:01;;;;;;;40.60;15.40;;;;;;;1.27;89.68;100146.02;110568;1273;22147;-71
2023/12/28 03:20:52;;;;;;;38.20;15.90;;;;;;;1.25;89.78;100146.05;110552;1268;22539;-72
2023/12/28 03:23:43;;;;;;;41.00;14.30;;;;;;;1.24;89.83;100144.12;110542;1272;22716;-72
2023/12/28 03:26:35;;;;;;;40.30;15.20;;;;;;;1.22;89.79;100145.33;110557;1268;22217;-71
2023/12/28 03:29:28;;;;;;;37.60;14.60;;;;;;;1.21;89.82;100144.48;110565;1268;22149;-72
2023/12/28 03:32:18;;;;;;;34.40;13.90;;;;;;;1.19;89.77;100142.86;110543;1276;22323;-72
2023/12/28 03:35:10;;;;;;;37.50;14.50;;;;;;;1.20;89.86;100145.68;110570;1261;22232;-72
2023/12/28 03:38:00;;;;;;;43.40;15.80;;;;;;;1.20;89.87;100140.11;110512;1276;22153;-71
2023/12/28 03:40:51;;;;;;;36.20;13.60;;;;;;;1.20;89.88;100125.20;110513;1267;22201;-72
2023/12/28 03:43:42;;;;;;;35.30;13.30;;;;;;;1.18;89.88;100108.08;110476;1276;22670;-71
2023/12/28 03:46:33;;;;;;;26.10;10.40;;;;;;;1.18;90.13;100107.94;110589;1276;22191;-71
2023/12/28 03:49:22;;;;;;;;;;;;;;;1.18;90.56;100098.02;110571;1268;23192;-71
2023/12/28 03:52:13;;;;;;;17.80;5.20;;;;;;;1.22;91.39;100096.45;110568;1269;23487;-71
2023/12/28 03:55:04;;;;;;;18.90;4.40;;;;;;;1.28;91.81;100091.16;110556;1276;22232;-70
2023/12/28 03:57:55;;;;;;;18.90;6.00;;;;;;;1.35;91.91;100096.38;110600;1262;22201;-71
2023/12/28 04:00:46;;;;;;;14.30;3.70;;;;;;;1.41;91.93;100098.70;110568;1268;22104;-72
2023/12/28 04:03:37;;;;;;;12.50;2.90;;;;;;;1.48;92.10;100090.25;110574;1268;22240;-72
2023/12/28 04:06:28;;;;;;;11.30;3.00;;;;;;;1.55;92.45;100083.98;110584;1276;22137;-72
2023/12/28 04:09:19;;;;;;;12.60;1.90;;;;;;;1.68;92.66;100082.66;110555;1276;22130;-71
2023/12/28 04:12:10;;;;;;;11.40;2.20;;;;;;;1.81;92.81;100084.27;110574;1270;22492;-71
2023/12/28 04:15:02;;;;;;;8.30;2.00;;;;;;;1.96;92.85;100087.34;110547;1268;22131;-71
2023/12/28 04:17:53;;;;;;;10.90;1.90;;;;;;;2.09;92.65;100087.23;110573;1268;22172;-73
2023/12/28 04:20:46;;;;;;;9.00;1.90;;;;;;;2.18;92.46;100090.18;110563;1276;22300;-70
2023/12/28 04:23:38;;;;;;;11.30;2.30;;;;;;;2.24;92.18;100087.46;110563;1273;22203;-72
2023/12/28 04:26:30;;;;;;;9.50;2.30;;;;;;;2.29;91.93;100084.19;110558;1268;23384;-72
2023/12/28 04:29:21;;;;;;;9.70;1.80;;;;;;;2.39;92.06;100079.98;110588;1276;22286;-71
2023/12/28 04:32:12;;;;;;;11.30;2.30;;;;;;;2.47;91.84;100084.04;110532;1268;22500;-72
2023/12/28 04:35:03;;;;;;;9.90;1.60;;;;;;;2.51;91.76;100077.81;110580;1276;22178;-70
2023/12/28 04:37:54;;;;;;;9.70;2.00;;;;;;;2.57;91.74;100085.08;110553;1276;22295;-70
2023/12/28 04:40:43;;;;;;;;;;;;;;;2.63;91.79;100085.26;110510;1276;22240;-71
2023/12/28 04:43:33;;;;;;;5.70;1.40;;;;;;;2.69;91.71;100083.07;110553;1276;22160;-71
2023/12/28 04:46:24;;;;;;;10.90;1.90;;;;;;;2.75;91.54;100088.59;110566;1268;22191;-73
2023/12/28 04:49:15;;;;;;;8.70;1.80;;;;;;;2.81;91.57;100082.78;110578;1273;22904;-70
2023/12/28 04:52:04;;;;;;;;;;;;;;;2.85;91.42;100082.84;110626;1276;22416;-71
2023/12/28 04:54:55;;;;;;;8.20;1.80;;;;;;;2.91;91.36;100080.87;110564;1271;22346;-71
2023/12/28 04:57:46;;;;;;;9.90;1.90;;;;;;;2.98;91.28;100081.27;110558;1261;22960;-71
2023/12/28 05:00:35;;;;;;;;;;;;;;;3.02;91.07;100086.91;110639;1261;22407;-71
2023/12/28 05:03:26;;;;;;;10.40;1.90;;;;;;;3.04;91.00;100093.73;110631;1268;22142;-71
2023/12/28 05:06:17;;;;;;;7.70;1.70;;;;;;;3.06;90.87;100102.58;110591;1273;22186;-71
2023/12/28 05:09:09;;;;;;;8.60;1.80;;;;;;;3.08;90.80;100097.92;110614;1273;22929;-71
2023/12/28 05:12:00;;;;;;;6.80;1.70;;;;;;;3.11;90.78;100106.00;110638;1261;22154;-71
2023/12/28 05:14:51;;;;;;;9.60;1.50;;;;;;;3.12;90.66;100108.63;110625;1273;22221;-72
2023/12/28 05:17:43;;;;;;;7.50;1.40;;;;;;;3.11;90.52;100105.98;110637;1268;23689;-71
2023/12/28 05:20:34;;;;;;;11.30;1.70;;;;;;;3.11;90.45;100109.06;110643;1268;22366;-71
2023/12/28 05:23:25;;;;;;;9.40;1.60;;;;;;;3.11;90.39;100112.20;110637;1276;22361;-70
2023/12/28 05:26:14;;;;;;;;;;;;;;;3.11;90.25;100116.32;110641;1268;22402;-70
2023/12/28 05:29:05;;;;;;;6.10;1.10;;;;;;;3.08;90.15;100116.86;110664;1272;22155;-74
2023/12/28 05:31:55;;;;;;;11.20;2.10;;;;;;;3.07;90.14;100113.25;107382;1276;22533;-69
2023/12/28 05:34:47;;;;;;;11.20;1.90;;;;;;;3.07;90.18;100113.41;107399;1261;22657;-72
2023/12/28 05:37:38;;;;;;;7.00;1.60;;;;;;;3.05;90.02;100114.50;107367;1276;25260;-72
2023/12/28 05:40:29;;;;;;;7.90;1.80;;;;;;;3.02;89.99;100116.46;107285;1276;24353;-72
2023/12/28 05:43:20;;;;;;;8.20;2.10;;;;;;;2.98;90.03;100116.16;107523;1268;22643;-72
2023/12/28 05:46:10;;;;;;;9.70;2.60;;;;;;;2.96;90.02;100117.88;107398;1268;22608;-73
2023/12/28 05:49:01;;;;;;;7.90;1.60;;;;;;;2.95;90.02;100125.70;107409;1268;24947;-73
2023/12/28 05:51:52;;;;;;;11.20;2.00;;;;;;;2.95;89.98;100128.22;107307;1272;25461;-72
2023/12/28 05:54:43;;;;;;;8.00;1.90;;;;;;;2.93;89.95;100126.98;107252;1268;23354;-73
2023/12/28 05:57:34;;;;;;;7.70;1.80;;;;;;;2.90;89.87;100123.91;107647;1268;22548;-72
2023/12/28 06:00:26;;;;;;;11.20;2.50;;;;;;;2.85;89.63;100133.97;107378;1268;22649;-72
2023/12/28 06:03:17;;;;;;;8.70;1.50;;;;;;;2.80;89.50;100140.08;107486;1268;26651;-72
2023/12/28 06:06:06;;;;;;;;;;;;;;;2.77;89.53;100142.20;107393;1273;23012;-72
2023/12/28 06:08:58;;;;;;;9.00;1.70;;;;;;;2.71;89.58;100139.65;107322;1273;25516;-72
2023/12/28 06:11:48;;;;;;;12.30;3.00;;;;;;;2.66;89.64;100139.43;107249;1271;22635;-72
2023/12/28 06:14:39;;;;;;;9.20;2.10;;;;;;;2.62;89.70;100138.52;107466;1273;25409;-73
2023/12/28 06:17:30;;;;;;;14.50;2.30;;;;;;;2.61;89.88;100136.96;107302;1268;22656;-71
2023/12/28 06:20:19;;;;;;;;;;;;;;;2.60;89.98;100138.16;107434;1268;22623;-71
2023/12/28 06:23:10;;;;;;;9.20;2.50;;;;;;;2.60;90.09;100127.92;107367;1269;23717;-73
2023/12/28 06:26:04;;;;;;;13.30;2.30;;;;;;;2.62;90.01;100135.30;107286;1268;22586;-72
2023/12/28 06:28:55;;;;;;;14.10;2.30;;;;;;;2.65;90.17;100136.48;107445;1276;24286;-71
2023/12/28 06:31:46;;;;;;;17.40;3.10;;;;;;;2.69;90.12;100136.07;107412;1264;22670;-72
2023/12/28 06:34:37;;;;;;;17.30;3.60;;;;;;;2.72;89.99;100143.47;107326;1276;22571;-72
2023/12/28 06:37:28;;;;;;;13.90;3.00;;;;;;;2.76;90.00;100144.08;107435;1276;26560;-73
2023/12/28 06:40:19;;;;;;;19.80;3.20;;;;;;;2.78;90.00;100146.16;107652;1276;22566;-72
2023/12/28 06:43:09;;;;;;;13.30;3.50;;;;;;;2.79;89.80;100148.91;107463;1264;25518;-72
2023/12/28 06:46:00;;;;;;;14.90;3.80;;;;;;;2.78;89.78;100153.89;107455;1271;22729;-72
2023/12/28 06:48:51;;;;;;;15.80;3.50;;;;;;;2.78;89.76;100158.77;107526;1274;23470;-73
2023/12/28 06:51:45;;;;;;;13.10;2.70;;;;;;;2.78;89.59;100176.19;107440;1276;23828;-72
2023/12/28 06:54:36;;;;;;;12.10;2.60;;;;;;;2.76;89.66;100171.59;107648;1274;22530;-73
2023/12/28 06:57:27;;;;;;;11.80;2.30;;;;;;;2.75;89.75;100154.98;107460;1268;23251;-72
2023/12/28 07:00:19;;;;;;;14.50;2.90;;;;;;;2.75;89.85;100153.25;107758;1276;22529;-72
2023/12/28 07:03:10;;;;;;;14.30;3.80;;;;;;;2.77;90.06;100151.79;107545;1270;24382;-72
2023/12/28 07:06:01;;;;;;;14.60;3.50;;;;;;;2.80;90.06;100147.24;107786;1273;25602;-73
2023/12/28 07:08:53;;;;;;;16.10;4.00;;;;;;;2.84;90.36;100139.89;107670;1276;22586;-71
2023/12/28 07:11:44;;;;;;;16.70;5.30;;;;;;;2.88;90.22;100140.58;107711;1269;24285;-72
2023/12/28 07:14:36;;;;;;;19.90;6.60;;;;;;;2.93;90.23;100138.98;107585;1273;22784;-72
2023/12/28 07:17:27;;;;;;;17.30;5.40;;;;;;;2.98;90.28;100139.72;107608;1276;22560;-73
2023/12/28 07:20:18;;;;;;;20.30;5.00;;;;;;;3.06;90.18;100142.68;107622;1276;22635;-72
2023/12/28 07:23:09;;;;;;;18.40;4.40;;;;;;;3.15;90.29;100151.52;107650;1268;22984;-73
2023/12/28 07:26:00;;;;;;;16.10;3.90;;;;;;;3.23;90.20;100155.35;107534;1276;25337;-72
2023/12/28 07:28:51;;;;;;;12.30;3.30;;;;;;;3.31;90.11;100161.70;107603;1276;22537;-73
2023/12/28 07:31:42;;;;;;;15.80;3.10;;;;;;;3.41;89.98;100160.02;107625;1261;23056;-72
2023/12/28 07:34:33;;;;;;;14.70;3.40;;;;;;;3.51;89.96;100160.10;107631;1276;24225;-72
2023/12/28 07:37:24;;;;;;;13.60;2.50;;;;;;;3.59;89.88;100158.55;107563;1276;22610;-73
2023/12/28 07:40:15;;;;;;;10.60;2.40;;;;;;;3.66;89.86;100158.36;107572;1268;22646;-72
2023/12/28 07:43:06;;;;;;;12.40;2.80;;;;;;;3.74;89.63;100161.85;107686;1268;23879;-73
2023/12/28 07:45:57;;;;;;;13.80;2.60;;;;;;;3.83;89.52;100168.48;107906;1268;25474;-72
2023/12/28 07:48:48;;;;;;;13.70;3.00;;;;;;;3.92;89.28;100171.23;107526;1273;25384;-72
2023/12/28 07:51:39;;;;;;;14.70;2.60;;;;;;;4.01;89.32;100174.84;107497;1268;22592;-73
2023/12/28 07:54:30;;;;;;;13.90;2.70;;;;;;;4.10;89.16;100176.34;107467;1273;24392;-72
2023/12/28 07:57:21;;;;;;;13.90;2.70;;;;;;;4.20;89.13;100181.27;107804;1276;22568;-72
2023/12/28 08:00:13;;;;;;;14.40;3.10;;;;;;;4.28;89.01;100178.23;107676;1273;24325;-73
2023/12/28 08:03:05;;;;;;;16.30;3.40;;;;;;;4.35;89.09;100178.17;107650;1274;22781;-72
2023/12/28 08:05:56;;;;;;;15.80;3.80;;;;;;;4.41;89.29;100179.25;107800;1276;22536;-73
2023/12/28 08:08:47;;;;;;;16.10;4.10;;;;;;;4.46;88.90;100182.89;107766;1276;22550;-73
2023/12/28 08:11:38;;;;;;;16.30;3.30;;;;;;;4.54;88.50;100181.16;107507;1273;23196;-72
2023/12/28 08:14:29;;;;;;;14.20;3.30;;;;;;;4.62;88.20;100169.14;107551;1276;22965;-72
2023/12/28 08:17:20;;;;;;;12.10;2.40;;;;;;;4.75;87.78;100176.59;107601;1268;26931;-73
2023/12/28 08:20:12;;;;;;;11.30;3.10;;;;;;;4.85;87.50;100181.34;107896;1276;23437;-72
2023/12/28 08:23:02;;;;;;;13.00;2.90;;;;;;;4.96;87.12;100185.98;107810;1276;22933;-72
2023/12/28 08:25:54;;;;;;;11.40;2.30;;;;;;;5.08;87.01;100197.54;107531;1276;22559;-72
2023/12/28 08:28:45;;;;;;;11.40;1.90;;;;;;;5.19;86.80;100196.63;107631;1276;22537;-73
2023/12/28 08:31:36;;;;;;;13.40;2.30;;;;;;;5.27;86.82;100199.86;107661;1276;22557;-74
2023/12/28 08:34:27;;;;;;;11.40;2.40;;;;;;;5.36;86.83;100192.21;108845;1268;23109;-74
2023/12/28 08:37:18;;;;;;;10.80;2.30;;;;;;;5.44;86.48;100195.80;110604;1270;22198;-70
2023/12/28 08:40:10;;;;;;;13.40;2.20;;;;;;;5.55;86.34;100204.17;110616;1271;22250;-71
2023/12/28 08:43:01;;;;;;;11.20;2.40;;;;;;;5.68;86.00;100206.42;110598;1276;22147;-71
2023/12/28 08:45:52;;;;;;;15.70;3.70;;;;;;;5.80;86.12;100205.95;110615;1273;22308;-71
2023/12/28 08:48:43;;;;;;;14.30;3.70;;;;;;;5.90;85.87;100206.20;110607;1273;22187;-71
2023/12/28 08:51:33;;;;;;;12.60;2.20;;;;;;;6.02;85.66;100206.66;110624;1273;22467;-71
2023/12/28 08:54:24;;;;;;;17.80;2.50;;;;;;;6.16;85.36;100207.64;110603;1268;22358;-72
2023/12/28 08:57:15;;;;;;;8.50;1.70;;;;;;;6.31;85.21;100210.84;110557;1275;22131;-71
2023/12/28 09:00:07;;;;;;;8.70;1.40;;;;;;;6.46;84.79;100205.61;110573;1274;22243;-71
2023/12/28 09:02:58;;;;;;;8.50;1.30;;;;;;;6.60;84.14;100213.31;110608;1273;23031;-71
2023/12/28 09:05:49;;;;;;;9.00;1.20;;;;;;;6.73;84.14;100217.76;110622;1268;22600;-71
2023/12/28 09:08:41;;;;;;;6.20;1.20;;;;;;;6.83;83.91;100219.36;110610;1276;22324;-71
2023/12/28 09:11:32;;;;;;;6.00;1.20;;;;;;;6.94;83.51;100221.79;110635;1267;22211;-71
2023/12/28 09:14:23;;;;;;;7.10;1.20;;;;;;;7.04;83.35;100229.48;110601;1268;23061;-71
2023/12/28 09:17:13;;;;;;;6.60;1.20;;;;;;;7.12;83.14;100238.67;110615;1268;23223;-71
2023/12/28 09:20:06;;;;;;;5.60;1.10;;;;;;;7.19;83.12;100240.56;110641;1275;23042;-71
2023/12/28 09:22:56;;;;;;;8.30;1.30;;;;;;;7.26;83.11;100240.22;110598;1276;22404;-72
2023/12/28 09:25:49;;;;;;;7.60;1.40;;;;;;;7.31;82.84;100243.02;110596;1275;22164;-71
2023/12/28 09:28:40;;;;;;;8.50;1.40;;;;;;;7.36;82.83;100241.80;110592;1276;22349;-71
2023/12/28 09:31:31;;;;;;;7.60;1.60;;;;;;;7.40;82.65;100233.80;110643;1273;22302;-71
2023/12/28 09:34:20;;;;;;;;;;;;;;;7.44;82.61;100233.06;110568;1269;22512;-71
2023/12/28 09:37:11;;;;;;;6.80;1.60;;;;;;;7.48;82.39;100231.81;110582;1273;22106;-71
2023/12/28 09:40:02;;;;;;;6.20;1.40;;;;;;;7.51;82.05;100229.78;110595;1271;22248;-71
2023/12/28 09:43:04;;;;;;;8.50;1.40;;;;;;;7.56;81.65;100228.13;110604;1274;22866;-72
2023/12/28 09:45:55;;;;;;;10.20;1.50;;;;;;;7.62;81.63;100229.14;110617;1269;22189;-72
2023/12/28 09:48:46;;;;;;;8.50;1.60;;;;;;;7.68;81.02;100225.11;110615;1273;22202;-71
2023/12/28 09:51:37;;;;;;;8.30;1.70;;;;;;;7.74;80.65;100210.96;110590;1276;22174;-71
2023/12/28 09:54:28;;;;;;;8.90;1.40;;;;;;;7.80;80.51;100215.54;110594;1264;22213;-71
2023/12/28 09:57:20;;;;;;;9.70;1.20;;;;;;;7.87;79.73;100218.20;110611;1268;22100;-72
2023/12/28 10:00:13;;;;;;;8.10;1.40;;;;;;;7.93;79.77;100220.63;110624;1276;22228;-72
2023/12/28 10:03:04;;;;;;;8.90;1.10;;;;;;;7.98;79.61;100224.24;110632;1276;23108;-71
2023/12/28 10:05:55;;;;;;;7.50;1.40;;;;;;;8.02;79.33;100211.73;110629;1264;22064;-71
2023/12/28 10:08:50;;;;;;;7.80;1.30;;;;;;;8.07;79.32;100216.77;110583;1270;22968;-71
2023/12/28 10:11:41;;;;;;;6.00;1.40;;;;;;;8.13;78.85;100204.14;110654;1274;22188;-71
2023/12/28 10:14:32;;;;;;;6.50;1.30;;;;;;;8.18;78.92;100197.16;110592;1274;22498;-71
2023/12/28 10:17:22;;;;;;;8.10;1.60;;;;;;;8.21;79.06;100199.58;110607;1269;22916;-71
2023/12/28 10:20:12;;;;;;;;;;;;;;;8.23;78.76;100193.66;110605;1268;22538;-71
2023/12/28 10:23:03;;;;;;;7.80;1.40;;;;;;;8.26;78.68;100202.30;110596;1276;23067;-71
2023/12/28 10:25:56;;;;;;;7.50;1.20;;;;;;;8.28;78.41;100202.67;110638;1276;22893;-71
2023/12/28 10:28:47;;;;;;;8.90;1.50;;;;;;;8.32;78.44;100212.64;110627;1268;22204;-72
2023/12/28 10:31:42;;;;;;;7.30;1.30;;;;;;;8.35;78.12;100210.44;110576;1276;22159;-73
2023/12/28 10:34:33;;;;;;;5.90;1.20;;;;;;;8.38;78.15;100211.90;110725;1268;23230;-71
2023/12/28 10:37:26;;;;;;;6.00;1.10;;;;;;;8.40;77.96;100221.30;110856;1266;22163;-72
2023/12/28 10:40:18;;;;;;;6.50;1.30;;;;;;;8.43;78.00;100224.15;110889;1271;23038;-72
2023/12/28 10:43:12;;;;;;;6.00;1.00;;;;;;;8.45;77.88;100227.80;110806;1271;22141;-72
2023/12/28 10:46:04;;;;;;;5.60;1.20;;;;;;;8.47;77.82;100228.73;110888;1260;22165;-72
2023/12/28 10:48:59;;;;;;;8.80;1.20;;;;;;;8.49;77.81;100228.73;110839;1265;22225;-72
2023/12/28 10:51:53;;;;;;;6.90;1.20;;;;;;;8.51;77.52;100237.23;110881;1271;22230;-72
2023/12/28 10:54:57;;;;;;;9.70;1.50;;;;;;;8.52;77.36;100239.14;110830;1269;23312;-73
2023/12/28 10:57:59;;;;;;;7.90;1.10;;;;;;;8.55;77.32;100238.61;110793;1270;22212;-72
2023/12/28 11:00:57;;;;;;;6.70;1.30;;;;;;;8.58;77.15;100224.50;110806;1255;22334;-72
2023/12/28 11:03:53;;;;;;;5.60;1.30;;;;;;;8.60;77.27;100222.55;110769;1271;22263;-72
2023/12/28 11:06:46;;;;;;;11.40;1.50;;;;;;;8.63;77.05;100224.10;110850;1265;22253;-72
2023/12/28 11:09:38;;;;;;;5.50;1.00;;;;;;;8.64;76.79;100218.77;110872;1271;22209;-72
2023/12/28 11:12:29;;;;;;;7.90;1.10;;;;;;;8.68;76.95;100217.86;110817;1260;22469;-73
2023/12/28 11:15:21;;;;;;;6.80;1.10;;;;;;;8.70;77.03;100214.56;110870;1271;22219;-73
2023/12/28 11:18:14;;;;;;;6.30;1.20;;;;;;;8.72;77.01;100208.48;110807;1271;22345;-72
2023/12/28 11:21:06;;;;;;;5.00;1.20;;;;;;;8.74;77.10;100204.96;110881;1271;22891;-73
2023/12/28 11:23:57;;;;;;;5.30;1.10;;;;;;;8.77;77.07;100205.33;110821;1262;22324;-72
2023/12/28 11:26:55;;;;;;;9.10;1.30;;;;;;;8.79;77.15;100203.27;110797;1268;22337;-72
2023/12/28 11:29:46;;;;;;;7.30;1.60;;;;;;;8.81;77.13;100205.20;110868;1268;22164;-73
2023/12/28 11:32:38;;;;;;;8.20;1.40;;;;;;;8.85;77.43;100209.34;110866;1271;22397;-72
2023/12/28 11:35:37;;;;;;;14.10;2.70;;;;;;;8.87;77.46;100204.94;110727;1266;22212;-72
2023/12/28 11:38:28;;;;;;;15.00;3.60;;;;;;;8.89;77.31;100202.36;110747;1265;22885;-72
2023/12/28 11:41:22;;;;;;;13.00;2.60;;;;;;;8.90;77.30;100201.27;110803;1271;22238;-73
2023/12/28 11:44:13;;;;;;;13.60;3.10;;;;;;;8.92;77.27;100195.55;110884;1265;22350;-72
2023/12/28 11:47:13;;;;;;;13.70;3.00;;;;;;;8.94;77.24;100189.88;110815;1252;22168;-73
2023/12/28 11:50:11;;;;;;;11.50;2.20;;;;;;;8.96;77.21;100195.30;110824;1255;22165;-73
2023/12/28 11:53:02;;;;;;;13.30;2.30;;;;;;;8.98;77.34;100195.13;110718;1273;22145;-73
2023/12/28 11:56:00;;;;;;;12.00;2.10;;;;;;;8.99;77.23;100190.55;110737;1273;22060;-73
2023/12/28 11:58:50;;;;;;;9.70;2.00;;;;;;;8.99;77.19;100180.43;110792;1265;23100;-72
2023/12/28 12:01:41;;;;;;;9.00;2.00;;;;;;;8.99;77.00;100175.82;110790;1273;22266;-73
2023/12/28 12:04:35;;;;;;;11.80;2.50;;;;;;;9.00;77.15;100169.76;110797;1265;22314;-72
2023/12/28 12:07:26;;;;;;;13.30;2.30;;;;;;;9.00;77.00;100164.09;110805;1269;23508;-73
2023/12/28 12:10:18;;;;;;;13.40;2.30;;;;;;;9.00;77.27;100162.27;110786;1270;22963;-72
2023/12/28 12:13:09;;;;;;;11.20;2.20;;;;;;;9.00;77.20;100165.20;110809;1271;22200;-73
2023/12/28 12:16:05;;;;;;;12.00;2.60;;;;;;;8.99;77.37;100170.24;110826;1266;22402;-73
2023/12/28 12:18:56;;;;;;;10.20;2.10;;;;;;;8.98;77.53;100164.30;110828;1269;22210;-73
2023/12/28 12:21:48;;;;;;;13.20;2.50;;;;;;;8.98;77.60;100166.95;110780;1271;22120;-73
2023/12/28 12:24:41;;;;;;;11.80;2.10;;;;;;;8.97;77.59;100165.09;110764;1269;22809;-73
2023/12/28 12:27:34;;;;;;;9.40;1.90;;;;;;;8.96;77.62;100160.92;110777;1261;132291;-74
2023/12/28 12:30:25;;;;;;;11.20;2.00;;;;;;;8.95;77.67;100165.16;110868;1271;22222;-73
2023/12/28 12:33:16;;;;;;;14.80;2.70;;;;;;;8.95;77.56;100168.69;110785;1269;22251;-73
2023/12/28 12:36:08;;;;;;;10.90;2.30;;;;;;;8.94;77.67;100175.59;110802;1272;22314;-72
2023/12/28 12:38:59;;;;;;;13.60;2.70;;;;;;;8.93;77.78;100169.20;110812;1269;22101;-72
2023/12/28 12:41:51;;;;;;;11.90;2.30;;;;;;;8.92;77.91;100169.28;110805;1267;22761;-74
2023/12/28 12:44:41;;;;;;;13.50;2.30;;;;;;;8.92;77.79;100170.17;110803;1269;22312;-73
2023/12/28 12:47:35;;;;;;;13.00;2.40;;;;;;;8.90;77.76;100168.58;110746;1266;22333;-72
2023/12/28 12:50:28;;;;;;;10.70;2.10;;;;;;;8.90;77.91;100165.83;110823;1270;22358;-72
2023/12/28 12:53:18;;;;;;;14.10;2.90;;;;;;;8.88;77.65;100167.02;110790;1265;22318;-73
2023/12/28 12:56:09;;;;;;;11.60;2.20;;;;;;;8.87;77.80;100165.45;110804;1272;22379;-73
2023/12/28 12:59:00;;;;;;;15.90;2.80;;;;;;;8.86;77.83;100159.72;110840;1273;22168;-73
2023/12/28 13:01:53;;;;;;;16.60;4.30;;;;;;;8.82;77.82;100155.06;110831;1273;22164;-74
2023/12/28 13:04:46;;;;;;;14.80;3.20;;;;;;;8.79;78.04;100161.02;110764;1273;22345;-73
2023/12/28 13:07:37;;;;;;;11.70;2.60;;;;;;;8.78;78.03;100156.92;110730;1273;22193;-73
2023/12/28 13:10:28;;;;;;;12.70;2.40;;;;;;;8.77;78.14;100161.05;110804;1270;22161;-72
2023/12/28 13:13:20;;;;;;;16.30;2.80;;;;;;;8.75;77.97;100160.96;110783;1262;22145;-73